Airfield :
LOGIN :

Register | Disclaimer

   EN    FR    IT 

 










Legend :    VFR   Marginal VFR   IFR   Intensive IFR   Very Intensive IFR
Visi :
Ceiling :
>= 8 km
>= 3000ft
5 to 8 km
1000 to 3000 ft
1500m to 5 km
500 to 1000 ft
800 to 1500m
200 to 500 ft
< 800m
< 200 ft
Symbols :   Thunderstorms  Fog  Heavy snow  Heavy precipitations  Wind > 20 kt
SIGMETs :     Misc.  Thunderstorms  Icing  Turbulence  Mountain Waves  Volcanic Ashes







- Airport Elevation : 367 ft
- IATA code : TAF


DAOL - Tafaraoui

CURRENT METAR :
  • 211800Z 35016KT 9999 FEW030 24/10 Q1014

EXPIRED METARs :
  • 211700Z 01014KT 9999 FEW030 26/10 Q1014

TAF N/A
No reported NOTAMs for that airfield.
2 SIGMETs reported for the Alger FIR (DAAA) :
 
Embedded thunderstorms
DAAA SIGMET 8 VALID 211900/212100 DAMM
DAAA ALGER FIR EMBD TS FCST WI N3405 E00318 - N3213 E00327 - N3041 E00051 - N3052 W00107 - N3201 W00152 - N3207 W00108 - N3342 E00130 - N3405 E00318 TOP FL380 MOV NE NC=
Dust storm
DAAA SIGMET 7 VALID 211800/212000 DAMM
DAAA ALGER FIR HYV DS OBS E OF LINE N2057 E00755 - N2623 E00459 - N2842 E00944 STNR NC=



MET'MAP, your aeronautical weather chart ! - Copyright ORBIFLY December 2007 - Disclaimer

ORBIFLY MET'MAP TEAM :

Programming & Development : Alexandra Zaïnal
Concept & Development : Baudouin d'Aumeries
Co-Development & Prog : Marc-Olivier Méhu
Technical & hardware support : Manuel Goepfert

Contact : metmap@orbifly.com




SOURCES & CREDITS :

   NOAA